KFAR/FAR METAR and TAF weather

Enter ICAO airport designator
Station Type Date Time Source
KFAR METAR 2021/05/11 00:53 UTC NOAA

KFAR 110053Z 03007KT 10SM CLR 12/M07 A3025 RMK AO2 SLP251 T01221072 $


Station Type Date Time Source
KFAR Decoded METAR 2021/05/11 00:53 UTC NOAA

HECTOR INTERNATIONAL AIRPORT , ND, United States (KFAR) 46-56N 096-49W 277M
May 10, 2021 - 08:53 PM EDT / 2021.05.11 0053 UTC
Wind: from the NNE (030 degrees) at 8 MPH (7 KT):0
Visibility: 10 mile(s):0
Sky conditions: clear
Temperature: 54.0 F (12.2 C)
Dew Point: 19.0 F (-7.2 C)
Relative Humidity: 25%
Pressure (altimeter): 30.25 in. Hg (1024 hPa)
ob: KFAR 110053Z 03007KT 10SM CLR 12/M07 A3025 RMK AO2 SLP251 T01221072
cycle: 1

Station Type Date Time Source
KFAR TAF 2021/05/10 21:48 UTC NOAA

TAF
AMD KFAR 102047Z 1021/1118 36005KT P6SM BKN080
FM102300 02005KT P6SM SCT080

Example: see airport list